sensor_id;sensor_type;location;lat;lon;timestamp;temperature;humidity
37874;DHT22;23709;48.078;11.684;2024-01-11T05:21:36;-5.70;99.90
37874;DHT22;23709;48.078;11.684;2024-01-11T05:24:08;-5.50;99.90
37874;DHT22;23709;48.078;11.684;2024-01-11T05:26:43;-5.60;99.90
37874;DHT22;23709;48.078;11.684;2024-01-11T05:29:15;-5.50;99.90
37874;DHT22;23709;48.078;11.684;2024-01-11T05:31:47;-5.40;99.90
37874;DHT22;23709;48.078;11.684;2024-01-11T05:34:20;-5.40;99.90
37874;DHT22;23709;48.078;11.684;2024-01-11T05:36:53;-5.40;99.90
37874;DHT22;23709;48.078;11.684;2024-01-11T05:39:26;-5.30;99.90
37874;DHT22;23709;48.078;11.684;2024-01-11T05:41:58;-5.20;99.90
37874;DHT22;23709;48.078;11.684;2024-01-11T05:44:30;-5.10;99.90
37874;DHT22;23709;48.078;11.684;2024-01-11T05:47:03;-5.10;99.90
37874;DHT22;23709;48.078;11.684;2024-01-11T05:49:36;-5.00;99.90
37874;DHT22;23709;48.078;11.684;2024-01-11T05:52:08;-5.00;99.90
37874;DHT22;23709;48.078;11.684;2024-01-11T05:54:41;-4.90;99.90
37874;DHT22;23709;48.078;11.684;2024-01-11T05:57:13;-4.90;99.90
37874;DHT22;23709;48.078;11.684;2024-01-11T05:59:46;-5.00;99.90
37874;DHT22;23709;48.078;11.684;2024-01-11T06:02:18;-5.10;99.90
37874;DHT22;23709;48.078;11.684;2024-01-11T06:04:53;-5.00;99.90
37874;DHT22;23709;48.078;11.684;2024-01-11T06:07:25;-5.00;99.90
37874;DHT22;23709;48.078;11.684;2024-01-11T06:09:57;-5.20;99.90
37874;DHT22;23709;48.078;11.684;2024-01-11T06:12:30;-5.20;99.90
37874;DHT22;23709;48.078;11.684;2024-01-11T06:15:03;-5.20;99.90
37874;DHT22;23709;48.078;11.684;2024-01-11T06:17:35;-5.10;99.90
37874;DHT22;23709;48.078;11.684;2024-01-11T06:20:09;-5.00;99.90
37874;DHT22;23709;48.078;11.684;2024-01-11T06:22:42;-4.90;99.90
37874;DHT22;23709;48.078;11.684;2024-01-11T06:25:17;-4.80;99.90
37874;DHT22;23709;48.078;11.684;2024-01-11T06:27:51;-4.80;99.90
37874;DHT22;23709;48.078;11.684;2024-01-11T06:30:23;-4.60;99.90
37874;DHT22;23709;48.078;11.684;2024-01-11T06:32:56;-4.60;99.90
37874;DHT22;23709;48.078;11.684;2024-01-11T06:35:28;-4.70;99.90
37874;DHT22;23709;48.078;11.684;2024-01-11T06:38:01;-4.70;99.90
37874;DHT22;23709;48.078;11.684;2024-01-11T06:40:33;-4.80;99.90
37874;DHT22;23709;48.078;11.684;2024-01-11T06:43:06;-4.70;99.90
37874;DHT22;23709;48.078;11.684;2024-01-11T06:45:39;-4.70;99.90
37874;DHT22;23709;48.078;11.684;2024-01-11T06:48:11;-4.70;99.90
37874;DHT22;23709;48.078;11.684;2024-01-11T06:50:44;-4.70;99.90
37874;DHT22;23709;48.078;11.684;2024-01-11T06:53:17;-4.70;99.90
37874;DHT22;23709;48.078;11.684;2024-01-11T06:55:50;-4.80;99.90
37874;DHT22;23709;48.078;11.684;2024-01-11T06:58:24;-4.80;99.90
37874;DHT22;23709;48.078;11.684;2024-01-11T07:00:56;-4.90;99.90
37874;DHT22;23709;48.078;11.684;2024-01-11T07:03:29;-5.00;99.90
37874;DHT22;23709;48.078;11.684;2024-01-11T07:06:01;-5.00;99.90
37874;DHT22;23709;48.078;11.684;2024-01-11T07:08:36;-4.90;99.90
37874;DHT22;23709;48.078;11.684;2024-01-11T07:11:08;-4.90;99.90
37874;DHT22;23709;48.078;11.684;2024-01-11T07:13:41;-4.70;99.90
37874;DHT22;23709;48.078;11.684;2024-01-11T07:16:14;-4.60;99.90
37874;DHT22;23709;48.078;11.684;2024-01-11T07:18:47;-4.70;99.90
37874;DHT22;23709;48.078;11.684;2024-01-11T07:21:23;-4.70;99.90
37874;DHT22;23709;48.078;11.684;2024-01-11T07:24:04;-4.80;99.90
37874;DHT22;23709;48.078;11.684;2024-01-11T07:26:37;-4.80;99.90
37874;DHT22;23709;48.078;11.684;2024-01-11T07:29:10;-4.70;99.90
37874;DHT22;23709;48.078;11.684;2024-01-11T07:31:42;-4.70;99.90
37874;DHT22;23709;48.078;11.684;2024-01-11T07:34:15;-4.70;99.90
37874;DHT22;23709;48.078;11.684;2024-01-11T07:36:47;-4.70;99.90
37874;DHT22;23709;48.078;11.684;2024-01-11T07:39:20;-4.70;99.90
37874;DHT22;23709;48.078;11.684;2024-01-11T07:41:55;-4.80;99.90
37874;DHT22;23709;48.078;11.684;2024-01-11T07:44:27;-4.80;99.90
37874;DHT22;23709;48.078;11.684;2024-01-11T07:47:00;-4.70;99.90
37874;DHT22;23709;48.078;11.684;2024-01-11T07:49:33;-4.80;99.90
37874;DHT22;23709;48.078;11.684;2024-01-11T07:52:05;-4.70;99.90
37874;DHT22;23709;48.078;11.684;2024-01-11T07:54:38;-4.70;99.90
37874;DHT22;23709;48.078;11.684;2024-01-11T07:57:10;-4.80;99.90
37874;DHT22;23709;48.078;11.684;2024-01-11T07:59:42;-4.70;99.90
37874;DHT22;23709;48.078;11.684;2024-01-11T08:02:14;-4.80;99.90
37874;DHT22;23709;48.078;11.684;2024-01-11T08:04:48;-4.80;99.90
37874;DHT22;23709;48.078;11.684;2024-01-11T08:07:20;-4.80;99.90
37874;DHT22;23709;48.078;11.684;2024-01-11T08:09:54;-4.90;99.90
37874;DHT22;23709;48.078;11.684;2024-01-11T14:21:41;-3.20;99.90
37874;DHT22;23709;48.078;11.684;2024-01-11T14:24:14;-3.20;99.90
37874;DHT22;23709;48.078;11.684;2024-01-11T14:26:54;-3.20;99.90
37874;DHT22;23709;48.078;11.684;2024-01-11T14:29:26;-3.20;99.90
37874;DHT22;23709;48.078;11.684;2024-01-11T14:31:59;-3.10;99.90
37874;DHT22;23709;48.078;11.684;2024-01-11T14:34:31;-3.10;99.90
37874;DHT22;23709;48.078;11.684;2024-01-11T14:37:04;-3.10;99.90
37874;DHT22;23709;48.078;11.684;2024-01-11T14:39:37;-3.10;99.90
37874;DHT22;23709;48.078;11.684;2024-01-11T14:42:10;-3.20;99.90
37874;DHT22;23709;48.078;11.684;2024-01-11T14:44:42;-3.10;99.90
37874;DHT22;23709;48.078;11.684;2024-01-11T14:47:15;-3.00;99.90
37874;DHT22;23709;48.078;11.684;2024-01-11T14:49:48;-3.00;99.90
37874;DHT22;23709;48.078;11.684;2024-01-11T14:52:21;-2.90;99.90
37874;DHT22;23709;48.078;11.684;2024-01-11T14:54:53;-2.90;99.90
37874;DHT22;23709;48.078;11.684;2024-01-11T14:57:25;-2.80;99.90
37874;DHT22;23709;48.078;11.684;2024-01-11T14:59:58;-2.80;99.90
37874;DHT22;23709;48.078;11.684;2024-01-11T15:02:30;-2.70;99.90
37874;DHT22;23709;48.078;11.684;2024-01-11T15:05:04;-2.70;99.90
37874;DHT22;23709;48.078;11.684;2024-01-11T15:07:37;-2.80;99.90
37874;DHT22;23709;48.078;11.684;2024-01-11T15:10:10;-2.70;99.90
37874;DHT22;23709;48.078;11.684;2024-01-11T15:12:42;-2.70;99.90
37874;DHT22;23709;48.078;11.684;2024-01-11T15:15:15;-2.70;99.90
37874;DHT22;23709;48.078;11.684;2024-01-11T15:17:47;-2.70;99.90
37874;DHT22;23709;48.078;11.684;2024-01-11T15:20:20;-2.70;99.90
37874;DHT22;23709;48.078;11.684;2024-01-11T15:22:54;-2.90;99.90
37874;DHT22;23709;48.078;11.684;2024-01-11T15:25:26;-2.90;99.90
37874;DHT22;23709;48.078;11.684;2024-01-11T15:27:59;-3.00;99.90
37874;DHT22;23709;48.078;11.684;2024-01-11T15:30:31;-2.90;99.90
37874;DHT22;23709;48.078;11.684;2024-01-11T15:33:04;-2.90;99.90
37874;DHT22;23709;48.078;11.684;2024-01-11T15:35:37;-2.90;99.90
37874;DHT22;23709;48.078;11.684;2024-01-11T15:38:10;-2.80;99.90
37874;DHT22;23709;48.078;11.684;2024-01-11T15:40:44;-2.80;99.90
37874;DHT22;23709;48.078;11.684;2024-01-11T15:43:16;-2.80;99.90
37874;DHT22;23709;48.078;11.684;2024-01-11T15:45:49;-2.80;99.90
37874;DHT22;23709;48.078;11.684;2024-01-11T15:48:21;-2.80;99.90
37874;DHT22;23709;48.078;11.684;2024-01-11T15:50:55;-2.80;99.90
37874;DHT22;23709;48.078;11.684;2024-01-11T15:53:29;-2.80;99.90
37874;DHT22;23709;48.078;11.684;2024-01-11T15:56:01;-2.90;99.90
37874;DHT22;23709;48.078;11.684;2024-01-11T15:58:34;-2.80;99.90
37874;DHT22;23709;48.078;11.684;2024-01-11T16:01:06;-2.90;99.90
37874;DHT22;23709;48.078;11.684;2024-01-11T16:03:39;-3.00;99.90
37874;DHT22;23709;48.078;11.684;2024-01-11T16:06:11;-3.00;99.90
37874;DHT22;23709;48.078;11.684;2024-01-11T16:08:43;-3.10;99.90
37874;DHT22;23709;48.078;11.684;2024-01-11T16:11:16;-3.20;99.90
37874;DHT22;23709;48.078;11.684;2024-01-11T16:13:48;-3.20;99.90
37874;DHT22;23709;48.078;11.684;2024-01-11T16:16:21;-3.30;99.90
37874;DHT22;23709;48.078;11.684;2024-01-11T16:18:54;-3.30;99.90
37874;DHT22;23709;48.078;11.684;2024-01-11T16:21:27;-3.20;99.90
37874;DHT22;23709;48.078;11.684;2024-01-11T16:24:03;-3.20;99.90
37874;DHT22;23709;48.078;11.684;2024-01-11T16:26:36;-3.20;99.90
37874;DHT22;23709;48.078;11.684;2024-01-11T16:29:08;-3.30;99.90
37874;DHT22;23709;48.078;11.684;2024-01-11T16:31:41;-3.40;99.90
37874;DHT22;23709;48.078;11.684;2024-01-11T16:34:13;-3.40;99.90
37874;DHT22;23709;48.078;11.684;2024-01-11T16:36:46;-3.30;99.90
37874;DHT22;23709;48.078;11.684;2024-01-11T16:39:18;-3.40;99.90
37874;DHT22;23709;48.078;11.684;2024-01-11T16:41:50;-3.40;99.90
37874;DHT22;23709;48.078;11.684;2024-01-11T16:44:24;-3.40;99.90
37874;DHT22;23709;48.078;11.684;2024-01-11T16:46:57;-3.40;99.90
37874;DHT22;23709;48.078;11.684;2024-01-11T16:49:29;-3.40;99.90
37874;DHT22;23709;48.078;11.684;2024-01-11T16:52:01;-3.30;99.90
37874;DHT22;23709;48.078;11.684;2024-01-11T16:54:37;-3.20;99.90
37874;DHT22;23709;48.078;11.684;2024-01-11T16:57:10;-3.10;99.90
37874;DHT22;23709;48.078;11.684;2024-01-11T16:59:42;-3.10;99.90
37874;DHT22;23709;48.078;11.684;2024-01-11T17:02:14;-3.20;99.90
37874;DHT22;23709;48.078;11.684;2024-01-11T17:04:47;-3.40;99.90
37874;DHT22;23709;48.078;11.684;2024-01-11T17:07:20;-3.20;99.90
37874;DHT22;23709;48.078;11.684;2024-01-11T17:09:52;-3.20;99.90
37874;DHT22;23709;48.078;11.684;2024-01-11T17:12:25;-3.20;99.90
37874;DHT22;23709;48.078;11.684;2024-01-11T17:14:57;-3.20;99.90
37874;DHT22;23709;48.078;11.684;2024-01-11T17:17:31;-3.20;99.90
37874;DHT22;23709;48.078;11.684;2024-01-11T17:20:04;-3.10;99.90
37874;DHT22;23709;48.078;11.684;2024-01-11T17:22:36;-3.10;99.90
37874;DHT22;23709;48.078;11.684;2024-01-11T17:25:09;-3.20;99.90
37874;DHT22;23709;48.078;11.684;2024-01-11T17:27:41;-3.20;99.90
37874;DHT22;23709;48.078;11.684;2024-01-11T17:30:14;-3.20;99.90
37874;DHT22;23709;48.078;11.684;2024-01-11T17:32:46;-3.20;99.90
37874;DHT22;23709;48.078;11.684;2024-01-11T17:35:19;-3.10;99.90
37874;DHT22;23709;48.078;11.684;2024-01-11T17:37:52;-3.10;99.90
37874;DHT22;23709;48.078;11.684;2024-01-11T17:40:24;-3.10;99.90
37874;DHT22;23709;48.078;11.684;2024-01-11T17:42:56;-3.00;99.90
37874;DHT22;23709;48.078;11.684;2024-01-11T17:45:29;-3.00;99.90
37874;DHT22;23709;48.078;11.684;2024-01-11T17:48:01;-3.00;99.90
37874;DHT22;23709;48.078;11.684;2024-01-11T17:50:34;-3.00;99.90
37874;DHT22;23709;48.078;11.684;2024-01-11T17:53:07;-3.00;99.90
37874;DHT22;23709;48.078;11.684;2024-01-11T17:55:39;-3.00;99.90
37874;DHT22;23709;48.078;11.684;2024-01-11T17:58:12;-3.00;99.90
37874;DHT22;23709;48.078;11.684;2024-01-11T18:00:44;-3.00;99.90
37874;DHT22;23709;48.078;11.684;2024-01-11T18:03:16;-3.00;99.90
37874;DHT22;23709;48.078;11.684;2024-01-11T18:05:49;-3.00;99.90
37874;DHT22;23709;48.078;11.684;2024-01-11T18:08:21;-3.00;99.90
37874;DHT22;23709;48.078;11.684;2024-01-11T18:10:54;-3.00;99.90
37874;DHT22;23709;48.078;11.684;2024-01-11T18:13:26;-3.00;99.90
37874;DHT22;23709;48.078;11.684;2024-01-11T18:15:58;-3.10;99.90
37874;DHT22;23709;48.078;11.684;2024-01-11T18:18:32;-3.00;99.90
37874;DHT22;23709;48.078;11.684;2024-01-11T18:21:05;-2.90;99.90
37874;DHT22;23709;48.078;11.684;2024-01-11T18:23:38;-3.00;99.90
37874;DHT22;23709;48.078;11.684;2024-01-11T18:26:11;-3.00;99.90
37874;DHT22;23709;48.078;11.684;2024-01-11T18:28:43;-3.00;99.90
37874;DHT22;23709;48.078;11.684;2024-01-11T18:31:16;-3.00;99.90
37874;DHT22;23709;48.078;11.684;2024-01-11T18:33:49;-2.90;99.90
37874;DHT22;23709;48.078;11.684;2024-01-11T18:36:24;-3.00;99.90
37874;DHT22;23709;48.078;11.684;2024-01-11T18:38:58;-3.00;99.90
37874;DHT22;23709;48.078;11.684;2024-01-11T18:41:31;-3.00;99.90
37874;DHT22;23709;48.078;11.684;2024-01-11T18:44:03;-3.00;99.90
37874;DHT22;23709;48.078;11.684;2024-01-11T18:46:40;-3.10;99.90
37874;DHT22;23709;48.078;11.684;2024-01-11T18:49:12;-3.10;99.90
37874;DHT22;23709;48.078;11.684;2024-01-11T18:51:45;-3.00;99.90
37874;DHT22;23709;48.078;11.684;2024-01-11T18:54:18;-3.00;99.90
37874;DHT22;23709;48.078;11.684;2024-01-11T18:56:50;-3.00;99.90
37874;DHT22;23709;48.078;11.684;2024-01-11T18:59:22;-3.00;99.90
37874;DHT22;23709;48.078;11.684;2024-01-11T19:01:56;-3.00;99.90
37874;DHT22;23709;48.078;11.684;2024-01-11T19:04:29;-3.00;99.90
37874;DHT22;23709;48.078;11.684;2024-01-11T19:07:01;-3.00;99.90
37874;DHT22;23709;48.078;11.684;2024-01-11T19:09:34;-3.10;99.90
37874;DHT22;23709;48.078;11.684;2024-01-11T19:12:07;-3.10;99.90
37874;DHT22;23709;48.078;11.684;2024-01-11T19:14:40;-3.10;99.90
37874;DHT22;23709;48.078;11.684;2024-01-11T19:17:12;-3.10;99.90
37874;DHT22;23709;48.078;11.684;2024-01-11T19:19:45;-3.20;99.90
37874;DHT22;23709;48.078;11.684;2024-01-11T19:22:17;-3.10;99.90
37874;DHT22;23709;48.078;11.684;2024-01-11T19:24:49;-3.00;99.90
37874;DHT22;23709;48.078;11.684;2024-01-11T19:27:22;-3.00;99.90
37874;DHT22;23709;48.078;11.684;2024-01-11T19:29:55;-3.00;99.90
37874;DHT22;23709;48.078;11.684;2024-01-11T19:32:28;-3.00;99.90
37874;DHT22;23709;48.078;11.684;2024-01-11T19:35:01;-3.00;99.90
37874;DHT22;23709;48.078;11.684;2024-01-11T19:37:33;-3.00;99.90
37874;DHT22;23709;48.078;11.684;2024-01-11T19:40:06;-3.00;99.90
37874;DHT22;23709;48.078;11.684;2024-01-11T19:42:40;-3.00;99.90
37874;DHT22;23709;48.078;11.684;2024-01-11T19:45:14;-2.90;99.90
37874;DHT22;23709;48.078;11.684;2024-01-11T19:47:47;-2.90;99.90
37874;DHT22;23709;48.078;11.684;2024-01-11T19:50:19;-2.90;99.90
37874;DHT22;23709;48.078;11.684;2024-01-11T19:52:51;-3.10;99.90
37874;DHT22;23709;48.078;11.684;2024-01-11T19:55:25;-3.10;99.90
37874;DHT22;23709;48.078;11.684;2024-01-11T19:57:57;-3.10;99.90
37874;DHT22;23709;48.078;11.684;2024-01-11T20:00:29;-3.20;99.90
37874;DHT22;23709;48.078;11.684;2024-01-11T20:03:02;-3.20;99.90
37874;DHT22;23709;48.078;11.684;2024-01-11T20:05:34;-3.10;99.90
37874;DHT22;23709;48.078;11.684;2024-01-11T20:08:07;-3.00;99.90
37874;DHT22;23709;48.078;11.684;2024-01-11T20:10:40;-3.00;99.90
37874;DHT22;23709;48.078;11.684;2024-01-11T20:13:12;-3.00;99.90
37874;DHT22;23709;48.078;11.684;2024-01-11T20:15:44;-3.10;99.90
37874;DHT22;23709;48.078;11.684;2024-01-11T20:18:17;-3.20;99.90
37874;DHT22;23709;48.078;11.684;2024-01-11T20:20:50;-3.30;99.90
37874;DHT22;23709;48.078;11.684;2024-01-11T20:23:24;-3.30;99.90
37874;DHT22;23709;48.078;11.684;2024-01-11T20:25:57;-3.30;99.90
37874;DHT22;23709;48.078;11.684;2024-01-11T20:28:32;-3.40;99.90
37874;DHT22;23709;48.078;11.684;2024-01-11T20:31:05;-3.40;99.90
37874;DHT22;23709;48.078;11.684;2024-01-11T20:33:37;-3.40;99.90
37874;DHT22;23709;48.078;11.684;2024-01-11T20:36:10;-3.50;99.90
37874;DHT22;23709;48.078;11.684;2024-01-11T20:38:42;-3.50;99.90
37874;DHT22;23709;48.078;11.684;2024-01-11T20:41:15;-3.60;99.90
37874;DHT22;23709;48.078;11.684;2024-01-11T20:43:49;-3.60;99.90
37874;DHT22;23709;48.078;11.684;2024-01-11T20:46:22;-3.60;99.90
37874;DHT22;23709;48.078;11.684;2024-01-11T20:48:58;-3.70;99.90
37874;DHT22;23709;48.078;11.684;2024-01-11T20:51:30;-3.80;99.90
37874;DHT22;23709;48.078;11.684;2024-01-11T20:54:03;-3.80;99.90
37874;DHT22;23709;48.078;11.684;2024-01-11T20:56:42;-3.80;99.90
37874;DHT22;23709;48.078;11.684;2024-01-11T20:59:16;-4.00;99.90
37874;DHT22;23709;48.078;11.684;2024-01-11T21:01:48;-4.10;99.90
37874;DHT22;23709;48.078;11.684;2024-01-11T21:04:20;-4.10;99.90
37874;DHT22;23709;48.078;11.684;2024-01-11T21:06:53;-4.20;99.90
37874;DHT22;23709;48.078;11.684;2024-01-11T21:09:26;-4.30;99.90
37874;DHT22;23709;48.078;11.684;2024-01-11T21:11:58;-4.50;99.90
37874;DHT22;23709;48.078;11.684;2024-01-11T21:14:32;-4.50;99.90
37874;DHT22;23709;48.078;11.684;2024-01-11T21:17:05;-4.60;99.90
37874;DHT22;23709;48.078;11.684;2024-01-11T21:19:37;-4.60;99.90
37874;DHT22;23709;48.078;11.684;2024-01-11T21:22:10;-4.60;99.90
37874;DHT22;23709;48.078;11.684;2024-01-11T21:24:42;-4.70;99.90
37874;DHT22;23709;48.078;11.684;2024-01-11T21:27:15;-4.80;99.90
37874;DHT22;23709;48.078;11.684;2024-01-11T21:29:47;-4.90;99.90
37874;DHT22;23709;48.078;11.684;2024-01-11T21:32:20;-5.00;99.90
37874;DHT22;23709;48.078;11.684;2024-01-11T21:34:53;-5.00;99.90
37874;DHT22;23709;48.078;11.684;2024-01-11T21:37:25;-4.90;99.90
37874;DHT22;23709;48.078;11.684;2024-01-11T21:39:57;-4.80;99.90
37874;DHT22;23709;48.078;11.684;2024-01-11T21:42:30;-4.80;99.90
37874;DHT22;23709;48.078;11.684;2024-01-11T21:45:05;-4.80;99.90
37874;DHT22;23709;48.078;11.684;2024-01-11T21:47:37;-4.90;99.90
37874;DHT22;23709;48.078;11.684;2024-01-11T21:50:10;-4.90;99.90
37874;DHT22;23709;48.078;11.684;2024-01-11T21:52:42;-4.90;99.90
37874;DHT22;23709;48.078;11.684;2024-01-11T21:55:15;-4.90;99.90
37874;DHT22;23709;48.078;11.684;2024-01-11T21:57:47;-4.80;99.90
37874;DHT22;23709;48.078;11.684;2024-01-11T22:00:20;-4.80;99.90
37874;DHT22;23709;48.078;11.684;2024-01-11T22:02:52;-4.80;99.90
37874;DHT22;23709;48.078;11.684;2024-01-11T22:05:25;-4.90;99.90
37874;DHT22;23709;48.078;11.684;2024-01-11T22:07:58;-5.00;99.90
37874;DHT22;23709;48.078;11.684;2024-01-11T22:10:31;-4.90;99.90
37874;DHT22;23709;48.078;11.684;2024-01-11T22:13:03;-4.80;99.90
37874;DHT22;23709;48.078;11.684;2024-01-11T22:15:36;-4.80;99.90
37874;DHT22;23709;48.078;11.684;2024-01-11T22:18:08;-4.70;99.90
37874;DHT22;23709;48.078;11.684;2024-01-11T22:20:41;-4.70;99.90
37874;DHT22;23709;48.078;11.684;2024-01-11T22:23:13;-4.70;99.90
37874;DHT22;23709;48.078;11.684;2024-01-11T22:25:46;-4.70;99.90
37874;DHT22;23709;48.078;11.684;2024-01-11T22:28:18;-4.60;99.90
37874;DHT22;23709;48.078;11.684;2024-01-11T22:30:51;-4.60;99.90
37874;DHT22;23709;48.078;11.684;2024-01-11T22:33:23;-4.60;99.90
37874;DHT22;23709;48.078;11.684;2024-01-11T22:35:56;-4.60;99.90
37874;DHT22;23709;48.078;11.684;2024-01-11T22:38:28;-4.60;99.90
37874;DHT22;23709;48.078;11.684;2024-01-11T22:41:01;-4.60;99.90
37874;DHT22;23709;48.078;11.684;2024-01-11T22:43:36;-4.50;99.90
37874;DHT22;23709;48.078;11.684;2024-01-11T22:46:09;-4.60;99.90
37874;DHT22;23709;48.078;11.684;2024-01-11T22:48:42;-4.60;99.90
37874;DHT22;23709;48.078;11.684;2024-01-11T22:51:15;-4.60;99.90
37874;DHT22;23709;48.078;11.684;2024-01-11T22:53:49;-4.60;99.90
37874;DHT22;23709;48.078;11.684;2024-01-11T22:56:23;-4.50;99.90
37874;DHT22;23709;48.078;11.684;2024-01-11T22:58:56;-4.60;99.90
37874;DHT22;23709;48.078;11.684;2024-01-11T23:01:28;-4.70;99.90
37874;DHT22;23709;48.078;11.684;2024-01-11T23:04:00;-4.80;99.90
37874;DHT22;23709;48.078;11.684;2024-01-11T23:06:33;-4.80;99.90
37874;DHT22;23709;48.078;11.684;2024-01-11T23:09:08;-4.80;99.90
37874;DHT22;23709;48.078;11.684;2024-01-11T23:11:42;-4.80;99.90
37874;DHT22;23709;48.078;11.684;2024-01-11T23:14:15;-4.80;99.90
37874;DHT22;23709;48.078;11.684;2024-01-11T23:16:51;-4.70;99.90
37874;DHT22;23709;48.078;11.684;2024-01-11T23:19:24;-4.80;99.90
37874;DHT22;23709;48.078;11.684;2024-01-11T23:21:58;-4.80;99.90
37874;DHT22;23709;48.078;11.684;2024-01-11T23:24:31;-4.80;99.90
37874;DHT22;23709;48.078;11.684;2024-01-11T23:27:03;-4.70;99.90
37874;DHT22;23709;48.078;11.684;2024-01-11T23:29:38;-4.70;99.90
37874;DHT22;23709;48.078;11.684;2024-01-11T23:32:10;-4.60;99.90
37874;DHT22;23709;48.078;11.684;2024-01-11T23:34:42;-4.60;99.90
37874;DHT22;23709;48.078;11.684;2024-01-11T23:37:15;-4.70;99.90
37874;DHT22;23709;48.078;11.684;2024-01-11T23:39:48;-4.70;99.90
37874;DHT22;23709;48.078;11.684;2024-01-11T23:42:21;-4.70;99.90
37874;DHT22;23709;48.078;11.684;2024-01-11T23:44:53;-4.70;99.90
37874;DHT22;23709;48.078;11.684;2024-01-11T23:47:26;-4.70;99.90
37874;DHT22;23709;48.078;11.684;2024-01-11T23:50:00;-4.70;99.90
37874;DHT22;23709;48.078;11.684;2024-01-11T23:52:33;-4.70;99.90
37874;DHT22;23709;48.078;11.684;2024-01-11T23:55:06;-4.70;99.90
37874;DHT22;23709;48.078;11.684;2024-01-11T23:57:38;-4.70;99.90
